Time;durP1;ratioP1;P1;durP2;ratioP2;P2;SDS_P1;SDS_P2;PMS_P1;PMS_P2;Temp;Humidity;BMP_temperature;BMP_pressure;BME280_temperature;BME280_humidity;BME280_pressure;Samples;Min_cycle;Max_cycle;Signal;HPM_P1;HPM_P2
2022/07/14 00:01:42;;;;;;;12.57;2.20;;;;;;;17.57;75.86;102263.53;4983236;28;20029;-62
2022/07/14 00:04:07;;;;;;;10.57;1.90;;;;;;;17.64;75.77;102265.84;4984044;28;20038;-62
2022/07/14 00:06:33;;;;;;;9.05;2.13;;;;;;;17.60;75.74;102272.25;4983445;28;20019;-62
2022/07/14 00:08:59;;;;;;;11.35;2.20;;;;;;;17.57;76.07;102274.19;4983671;28;20077;-63
2022/07/14 00:11:25;;;;;;;11.52;2.47;;;;;;;17.51;76.26;102269.94;4983493;28;20037;-63
2022/07/14 00:13:51;;;;;;;13.73;2.38;;;;;;;17.53;75.83;102284.09;4982160;28;20254;-62
2022/07/14 00:16:16;;;;;;;10.23;2.28;;;;;;;17.45;76.49;102279.06;4983368;28;20069;-62
2022/07/14 00:18:44;;;;;;;9.07;2.20;;;;;;;17.43;76.05;102279.13;4983870;28;20026;-62
2022/07/14 00:21:13;;;;;;;9.38;2.33;;;;;;;17.41;76.43;102285.44;4982828;28;20031;-62
2022/07/14 00:23:39;;;;;;;11.32;2.50;;;;;;;17.36;76.56;102276.75;4983621;28;20092;-62
2022/07/14 00:26:05;;;;;;;4.15;1.67;;;;;;;17.29;76.81;102278.81;4983871;28;20022;-63
2022/07/14 00:28:30;;;;;;;10.73;1.92;;;;;;;17.32;76.67;102270.69;4983325;28;20553;-64
2022/07/14 00:30:56;;;;;;;7.55;1.98;;;;;;;17.30;76.62;102272.53;4983200;28;20038;-61
2022/07/14 00:33:21;;;;;;;8.90;2.60;;;;;;;17.27;76.48;102267.34;4983188;28;20081;-62
2022/07/14 00:35:47;;;;;;;12.82;2.13;;;;;;;17.24;76.58;102264.78;4982889;28;20068;-62
2022/07/14 00:38:12;;;;;;;7.85;1.73;;;;;;;17.13;76.92;102262.56;4983333;28;20110;-63
2022/07/14 00:40:37;;;;;;;8.35;2.13;;;;;;;17.01;77.59;102266.53;4983554;28;20022;-61
2022/07/14 00:43:04;;;;;;;8.63;1.92;;;;;;;17.05;77.27;102268.16;4983797;28;20129;-63
2022/07/14 00:45:29;;;;;;;8.00;1.50;;;;;;;17.04;77.09;102269.09;4982868;28;20081;-62
2022/07/14 00:47:54;;;;;;;11.10;2.42;;;;;;;16.99;77.26;102268.38;4983952;28;20073;-62
2022/07/14 00:50:20;;;;;;;6.40;1.95;;;;;;;16.96;77.43;102274.69;4987036;28;20442;-62
2022/07/14 00:52:46;;;;;;;8.65;2.28;;;;;;;16.95;77.58;102274.75;4986774;28;20026;-62
2022/07/14 00:55:13;;;;;;;7.25;1.88;;;;;;;16.92;77.97;102273.09;4986867;28;20022;-63
2022/07/14 00:57:38;;;;;;;12.93;2.10;;;;;;;16.89;77.97;102268.72;4986692;28;20018;-62
2022/07/14 01:00:06;;;;;;;6.95;2.15;;;;;;;16.84;78.23;102270.72;4987183;28;20454;-63
2022/07/14 01:02:32;;;;;;;7.50;2.45;;;;;;;16.70;78.66;102278.34;4986900;28;20449;-63
2022/07/14 01:04:57;;;;;;;8.38;1.90;;;;;;;16.62;79.19;102275.97;4987010;28;20043;-63
2022/07/14 01:07:22;;;;;;;15.00;2.40;;;;;;;16.54;79.31;102279.78;4985736;28;20508;-60
2022/07/14 01:09:48;;;;;;;9.18;1.98;;;;;;;16.53;79.79;102277.16;5000881;23;20384;-63
2022/07/14 01:12:14;;;;;;;10.32;2.63;;;;;;;16.53;79.50;102283.34;5006072;28;20036;-63
2022/07/14 01:14:40;;;;;;;7.10;1.80;;;;;;;16.50;79.68;102279.94;5006087;28;20483;-61
2022/07/14 01:17:07;;;;;;;7.60;2.00;;;;;;;16.42;79.81;102281.09;5007031;28;20231;-62
2022/07/14 01:19:33;;;;;;;13.18;2.50;;;;;;;16.33;80.04;102278.75;5006941;28;20118;-62
2022/07/14 01:21:59;;;;;;;8.55;2.58;;;;;;;16.28;80.17;102284.22;5005153;28;20488;-63
2022/07/14 01:24:25;;;;;;;12.15;2.67;;;;;;;16.15;80.45;102281.13;5004299;28;20029;-63
2022/07/14 01:26:51;;;;;;;8.13;2.30;;;;;;;16.08;80.78;102281.41;5006384;28;20018;-64
2022/07/14 01:29:17;;;;;;;7.13;1.98;;;;;;;15.96;81.09;102277.34;5005914;28;20498;-63
2022/07/14 01:31:42;;;;;;;15.32;2.38;;;;;;;15.88;81.58;102270.50;5006129;28;20025;-63
2022/07/14 01:34:08;;;;;;;10.70;2.60;;;;;;;15.76;81.53;102281.50;5005841;28;20022;-63
2022/07/14 01:36:33;;;;;;;11.90;2.67;;;;;;;15.70;82.32;102276.41;5005381;28;20034;-64
2022/07/14 01:38:59;;;;;;;8.63;2.20;;;;;;;15.65;82.85;102285.41;5005896;28;20022;-61
2022/07/14 01:41:24;;;;;;;10.48;2.35;;;;;;;15.60;82.87;102282.03;5005768;28;20037;-62
2022/07/14 01:43:50;;;;;;;6.28;2.38;;;;;;;15.56;83.12;102283.03;5005973;28;20026;-62
2022/07/14 01:46:16;;;;;;;8.43;2.10;;;;;;;15.53;83.31;102286.66;5005775;28;20053;-63
2022/07/14 01:48:41;;;;;;;8.07;2.17;;;;;;;15.48;83.58;102288.59;5005525;28;20033;-64
2022/07/14 01:51:06;;;;;;;5.47;2.38;;;;;;;15.41;83.79;102287.03;5005510;28;20049;-62
2022/07/14 01:53:33;;;;;;;12.95;2.63;;;;;;;15.35;84.19;102284.59;5005490;28;20029;-62
2022/07/14 01:55:58;;;;;;;10.23;2.92;;;;;;;15.29;84.38;102288.28;5005688;28;20629;-63
2022/07/14 01:58:24;;;;;;;11.90;2.65;;;;;;;15.23;84.81;102280.53;5005370;28;20038;-64
2022/07/14 02:01:39;;;;;;;15.80;2.85;;;;;;;15.15;84.97;102276.28;5005098;28;20033;-63
2022/07/14 02:03:35;;;;;;;8.73;3.00;;;;;;;15.10;85.14;102282.66;5005540;28;20353;-62
2022/07/14 02:06:01;;;;;;;6.20;2.25;;;;;;;15.05;85.70;102277.50;5004992;28;20480;-62
2022/07/14 02:08:27;;;;;;;7.32;2.40;;;;;;;15.03;85.90;102280.19;5005058;28;20029;-62
2022/07/14 02:13:36;;;;;;;10.68;2.80;;;;;;;14.96;86.39;102275.13;5005641;28;20032;-63
2022/07/14 02:16:02;;;;;;;10.20;3.22;;;;;;;14.96;86.40;102265.38;5005402;28;20097;-64
2022/07/14 02:18:28;;;;;;;13.45;2.97;;;;;;;14.90;86.78;102268.22;5004882;28;20037;-62
2022/07/14 02:20:53;;;;;;;10.10;3.08;;;;;;;14.88;86.82;102265.63;5004283;28;20028;-63
2022/07/14 02:23:18;;;;;;;8.57;2.80;;;;;;;14.86;86.96;102267.44;5004698;28;20040;-62
2022/07/14 02:25:44;;;;;;;8.90;3.03;;;;;;;14.82;87.46;102249.88;5005324;28;20519;-63
2022/07/14 02:28:09;;;;;;;10.00;3.00;;;;;;;14.85;87.52;102252.44;5004892;28;20026;-63
2022/07/14 02:30:34;;;;;;;11.40;3.05;;;;;;;14.87;87.84;102249.75;5005519;28;20495;-63
2022/07/14 02:33:00;;;;;;;12.95;3.35;;;;;;;14.88;87.87;102248.81;5005142;28;20540;-64
2022/07/14 02:35:26;;;;;;;9.80;2.80;;;;;;;14.88;87.51;102249.69;5003921;28;20153;-63
2022/07/14 02:37:51;;;;;;;14.25;3.17;;;;;;;14.86;87.42;102242.66;5004746;28;20073;-62
2022/07/14 02:40:17;;;;;;;11.30;2.72;;;;;;;14.83;87.53;102254.25;5004725;28;20056;-62
2022/07/14 02:42:42;;;;;;;8.55;2.78;;;;;;;14.81;88.51;102256.06;5004964;28;20041;-62
2022/07/14 02:45:08;;;;;;;8.85;3.50;;;;;;;14.83;88.33;102262.22;5004721;28;20018;-62
2022/07/14 02:47:33;;;;;;;9.65;2.90;;;;;;;14.79;88.28;102268.53;5004891;28;20117;-62
2022/07/14 02:49:59;;;;;;;10.95;3.03;;;;;;;14.76;88.09;102257.97;5004447;28;20068;-63
2022/07/14 02:52:24;;;;;;;14.30;3.47;;;;;;;14.78;88.47;102253.53;5003589;28;20030;-62
2022/07/14 02:54:49;;;;;;;7.53;3.35;;;;;;;14.78;88.24;102262.34;5004783;28;20322;-63
2022/07/14 02:57:15;;;;;;;8.82;3.08;;;;;;;14.79;88.15;102255.25;5004615;28;20022;-63
2022/07/14 02:59:41;;;;;;;10.90;2.60;;;;;;;14.77;88.22;102257.94;5004346;28;20022;-62
2022/07/14 03:02:07;;;;;;;11.63;3.13;;;;;;;14.74;88.21;102255.38;5004967;28;20073;-63
2022/07/14 03:04:33;;;;;;;14.30;3.20;;;;;;;14.75;88.33;102253.59;5004671;28;20018;-62
2022/07/14 03:06:58;;;;;;;11.45;3.13;;;;;;;14.72;88.25;102251.03;5003576;28;20357;-62
2022/07/14 03:09:23;;;;;;;11.60;2.90;;;;;;;14.68;87.86;102252.00;5003886;28;20034;-62
2022/07/14 03:11:49;;;;;;;11.57;3.53;;;;;;;14.64;88.13;102260.06;5002345;28;20105;-62
2022/07/14 03:14:14;;;;;;;10.60;3.28;;;;;;;14.63;88.69;102253.00;5004276;28;20048;-63
2022/07/14 03:16:39;;;;;;;9.57;3.13;;;;;;;14.64;88.53;102253.88;5004354;28;20076;-63
2022/07/14 03:19:05;;;;;;;10.05;2.85;;;;;;;14.69;88.26;102262.56;5004479;28;20018;-63
2022/07/14 03:21:30;;;;;;;12.27;3.60;;;;;;;14.71;88.47;102252.78;5003162;28;20026;-63
2022/07/14 03:23:56;;;;;;;14.15;3.65;;;;;;;14.65;88.19;102253.84;5004286;28;20346;-63
2022/07/14 03:26:21;;;;;;;11.52;3.10;;;;;;;14.64;87.40;102253.88;5004083;28;20034;-63
2022/07/14 03:28:46;;;;;;;7.13;3.28;;;;;;;14.60;87.93;102257.53;5004287;28;20072;-62
2022/07/14 03:31:12;;;;;;;12.80;3.58;;;;;;;14.58;87.99;102254.94;5004026;28;20471;-62
2022/07/14 03:33:37;;;;;;;11.70;3.55;;;;;;;14.54;88.55;102255.91;5003931;28;20483;-62
2022/07/14 03:36:02;;;;;;;9.82;3.60;;;;;;;14.51;88.70;102248.06;5003423;28;20026;-61
2022/07/14 03:38:28;;;;;;;18.20;3.72;;;;;;;14.54;88.63;102245.31;5003624;28;20025;-62
2022/07/14 03:40:53;;;;;;;11.40;3.17;;;;;;;14.60;88.53;102234.53;5003968;28;20057;-62
2022/07/14 03:43:18;;;;;;;13.85;3.67;;;;;;;14.67;88.07;102235.22;5003727;28;20022;-62
2022/07/14 03:45:44;;;;;;;14.75;3.95;;;;;;;14.70;87.84;102237.81;5003728;28;20037;-63
2022/07/14 03:48:09;;;;;;;11.70;3.47;;;;;;;14.69;87.65;102235.19;5003476;28;20037;-64
2022/07/14 03:50:36;;;;;;;8.20;3.25;;;;;;;14.72;87.66;102235.09;5003163;28;20026;-63
2022/07/14 03:53:02;;;;;;;10.95;2.97;;;;;;;14.75;87.44;102246.47;5003927;28;20080;-63
2022/07/14 03:55:27;;;;;;;10.95;3.10;;;;;;;14.82;87.66;102244.56;5003739;28;20285;-62
2022/07/14 03:57:52;;;;;;;9.32;3.28;;;;;;;14.87;87.44;102237.31;5003842;28;20025;-62
2022/07/14 04:00:18;;;;;;;14.98;3.17;;;;;;;14.96;87.26;102233.50;5003435;28;20478;-62
2022/07/14 04:02:43;;;;;;;11.35;3.70;;;;;;;14.96;87.27;102232.66;5003319;28;20033;-64
2022/07/14 04:05:08;;;;;;;11.57;3.13;;;;;;;15.01;87.30;102225.41;5003298;28;20156;-63
2022/07/14 04:07:34;;;;;;;12.13;3.42;;;;;;;15.06;87.18;102219.97;5002901;28;20103;-63
2022/07/14 04:09:59;;;;;;;7.30;3.20;;;;;;;15.09;86.79;102220.75;5003570;28;20416;-63
2022/07/14 04:12:24;;;;;;;13.15;3.78;;;;;;;15.15;86.69;102233.81;5003512;28;20559;-63
2022/07/14 04:14:50;;;;;;;6.93;2.78;;;;;;;15.22;86.44;102228.31;5003799;28;20030;-64
2022/07/14 04:17:15;;;;;;;9.95;3.13;;;;;;;15.26;86.22;102232.66;5003362;28;20026;-62
2022/07/14 04:19:40;;;;;;;11.40;3.38;;;;;;;15.28;86.10;102241.41;5003175;28;20029;-63
2022/07/14 04:22:05;;;;;;;9.10;2.72;;;;;;;15.29;85.82;102235.16;5002847;28;20046;-63
2022/07/14 04:24:31;;;;;;;7.05;2.35;;;;;;;15.30;85.72;102236.94;5006446;28;20041;-63
2022/07/14 04:26:56;;;;;;;7.15;3.10;;;;;;;15.33;85.75;102234.19;5007542;28;20545;-64
2022/07/14 04:29:23;;;;;;;9.38;3.00;;;;;;;15.37;85.82;102227.84;5007301;28;20554;-61
2022/07/14 04:31:48;;;;;;;8.45;2.85;;;;;;;15.39;85.95;102231.31;5007702;28;20026;-63
2022/07/14 04:34:13;;;;;;;13.10;2.78;;;;;;;15.43;85.56;102239.19;5006716;28;20030;-61
2022/07/14 04:36:39;;;;;;;6.00;2.20;;;;;;;15.46;85.13;102231.13;5006406;28;20497;-62
2022/07/14 04:39:05;;;;;;;7.53;2.88;;;;;;;15.49;84.88;102231.00;5007729;28;20361;-63
2022/07/14 04:41:31;;;;;;;6.53;2.72;;;;;;;15.48;84.93;102235.47;5006887;28;20697;-63
2022/07/14 04:43:57;;;;;;;12.35;3.20;;;;;;;15.60;84.71;102241.31;5007088;28;20072;-62
2022/07/14 04:46:23;;;;;;;5.78;2.97;;;;;;;15.65;84.61;102234.91;5006653;28;20424;-61
2022/07/14 04:54:16;;;;;;;10.52;2.45;;;;;;;15.88;83.90;102222.66;5006732;28;20122;-63
2022/07/14 04:56:41;;;;;;;8.68;2.75;;;;;;;16.03;83.33;102220.41;5006621;28;20141;-62
2022/07/14 04:59:07;;;;;;;13.30;3.80;;;;;;;16.17;83.24;102222.59;5007063;28;20058;-62
2022/07/14 05:01:32;;;;;;;6.38;2.67;;;;;;;16.28;83.14;102215.06;5006619;28;20377;-63
2022/07/14 05:03:57;;;;;;;8.02;2.72;;;;;;;16.35;82.37;102226.38;5006653;28;20034;-62
2022/07/14 05:06:23;;;;;;;16.30;2.90;;;;;;;16.38;82.67;102218.25;5005527;28;20050;-62
2022/07/14 05:08:49;;;;;;;10.48;2.50;;;;;;;16.52;81.97;102211.56;5006459;28;20116;-65
2022/07/14 05:11:14;;;;;;;13.75;3.05;;;;;;;16.56;80.74;102218.53;5004760;28;20061;-63
2022/07/14 05:13:39;;;;;;;10.95;3.10;;;;;;;16.63;80.33;102216.50;5004960;28;20022;-62
2022/07/14 05:16:05;;;;;;;11.68;2.85;;;;;;;16.58;79.86;102221.97;5006567;28;20022;-62
2022/07/14 05:18:30;;;;;;;14.48;3.28;;;;;;;16.66;80.02;102222.56;5006073;28;20038;-63
2022/07/14 05:20:56;;;;;;;14.32;3.20;;;;;;;16.62;80.03;102220.94;5005996;28;20464;-63
2022/07/14 05:23:21;;;;;;;11.57;2.83;;;;;;;16.74;79.26;102226.75;5005788;28;20488;-62
2022/07/14 05:25:46;;;;;;;7.32;2.25;;;;;;;16.80;78.37;102226.50;5006307;28;20022;-63
2022/07/14 05:28:12;;;;;;;8.02;2.20;;;;;;;16.87;78.05;102232.44;5005820;28;20095;-63
2022/07/14 05:30:37;;;;;;;9.40;2.67;;;;;;;16.97;77.94;102230.28;5006154;28;20028;-63
2022/07/14 05:33:02;;;;;;;9.65;2.70;;;;;;;17.05;77.29;102230.88;5006369;28;20183;-63
2022/07/14 05:35:28;;;;;;;16.25;2.53;;;;;;;17.07;77.18;102237.06;5003918;28;20033;-62
2022/07/14 05:37:53;;;;;;;14.23;3.10;;;;;;;17.12;77.07;102243.03;5006202;28;20036;-62
2022/07/14 05:40:19;;;;;;;10.77;2.47;;;;;;;17.20;77.04;102236.53;5006084;28;20465;-62
2022/07/14 05:42:44;;;;;;;9.77;2.20;;;;;;;17.45;75.97;102240.91;5005871;28;20507;-63
2022/07/14 05:45:10;;;;;;;8.30;1.95;;;;;;;17.89;74.66;102254.19;5005717;28;20022;-63
2022/07/14 05:47:35;;;;;;;8.00;2.00;;;;;;;18.25;72.52;102251.81;5005922;28;20044;-64
2022/07/14 05:50:00;;;;;;;10.88;1.80;;;;;;;18.23;72.69;102269.66;5005154;28;20100;-63
2022/07/14 05:52:30;;;;;;;8.35;1.80;;;;;;;18.27;71.81;102263.28;5004301;28;20477;-63
2022/07/14 05:54:57;;;;;;;10.27;1.85;;;;;;;18.26;71.64;102259.75;5005627;28;20026;-62
2022/07/14 05:57:23;;;;;;;7.68;1.80;;;;;;;18.09;73.11;102259.59;5005532;28;20080;-62
2022/07/14 05:59:48;;;;;;;5.78;1.92;;;;;;;18.00;73.09;102261.69;5005116;28;20049;-63
2022/07/14 06:02:13;;;;;;;10.48;1.88;;;;;;;17.96;73.62;102254.75;5005068;28;20431;-62
2022/07/14 06:04:39;;;;;;;8.18;1.67;;;;;;;18.06;72.90;102249.88;5005230;28;20030;-62
2022/07/14 06:07:06;;;;;;;7.60;2.10;;;;;;;18.18;72.45;102248.53;5005039;28;20044;-63
2022/07/14 06:09:35;;;;;;;8.73;2.28;;;;;;;18.19;71.99;102248.44;5004966;28;20072;-64
2022/07/14 06:12:00;;;;;;;10.05;2.42;;;;;;;18.14;72.49;102247.81;5005168;28;20019;-62
2022/07/14 06:14:25;;;;;;;10.48;2.45;;;;;;;18.09;73.49;102248.91;5004765;28;20400;-63
2022/07/14 06:16:51;;;;;;;9.57;1.77;;;;;;;18.23;73.22;102251.00;5005162;28;20053;-62
2022/07/14 06:19:16;;;;;;;11.95;2.33;;;;;;;18.19;73.13;102251.13;5004853;28;20033;-62
2022/07/14 06:21:42;;;;;;;18.67;2.70;;;;;;;18.21;72.92;102250.22;5004647;28;20528;-61
2022/07/14 06:24:07;;;;;;;11.73;2.47;;;;;;;18.25;72.60;102244.69;5004912;28;20490;-62
2022/07/14 06:26:34;;;;;;;6.05;2.08;;;;;;;18.36;72.48;102244.16;5005206;28;20032;-65
2022/07/14 06:29:00;;;;;;;9.98;2.28;;;;;;;18.32;73.11;102245.25;5004450;28;20029;-64
2022/07/14 06:31:25;;;;;;;12.02;2.28;;;;;;;18.36;72.99;102235.31;5004962;28;20496;-67
2022/07/14 06:33:50;;;;;;;8.35;2.00;;;;;;;18.47;72.36;102232.16;5005198;28;20034;-64
2022/07/14 06:36:17;;;;;;;8.52;1.92;;;;;;;18.67;72.09;102234.75;5003908;28;20037;-64
2022/07/14 06:38:42;;;;;;;11.20;1.80;;;;;;;18.71;71.90;102232.84;5004820;28;20145;-63
2022/07/14 06:41:07;;;;;;;8.00;2.15;;;;;;;18.78;71.92;102231.59;5004233;28;20030;-63
2022/07/14 06:43:33;;;;;;;8.07;2.28;;;;;;;18.77;71.98;102229.88;5004806;28;20041;-63
2022/07/14 06:45:58;;;;;;;9.82;2.50;;;;;;;18.88;71.15;102223.16;5004448;28;20038;-64
2022/07/14 06:48:23;;;;;;;12.05;2.35;;;;;;;18.92;71.21;102217.63;5004429;28;20081;-62
2022/07/14 06:50:50;;;;;;;9.68;2.20;;;;;;;18.85;71.25;102202.81;5004210;28;20048;-63
2022/07/14 06:53:15;;;;;;;10.20;2.38;;;;;;;18.86;70.11;102199.22;5004511;28;20018;-63
2022/07/14 06:55:41;;;;;;;14.95;2.42;;;;;;;18.92;69.70;102190.91;5004517;28;20148;-64
2022/07/14 06:58:06;;;;;;;7.70;1.70;;;;;;;19.05;69.94;102187.63;5004812;28;20045;-62
2022/07/14 07:00:32;;;;;;;7.90;1.98;;;;;;;18.96;70.48;102183.59;5004491;28;20030;-64
2022/07/14 07:02:57;;;;;;;9.00;2.03;;;;;;;19.14;71.08;102184.53;5004529;28;20421;-63
2022/07/14 07:08:07;;;;;;;8.85;2.08;;;;;;;19.62;68.89;102191.16;5004545;28;20037;-62
2022/07/14 07:10:33;;;;;;;9.13;2.30;;;;;;;19.50;69.10;102189.97;5004352;28;20299;-63
2022/07/14 07:12:59;;;;;;;6.85;2.05;;;;;;;19.67;68.74;102184.63;5004001;28;20385;-62
2022/07/14 07:15:24;;;;;;;10.70;2.13;;;;;;;19.63;68.28;102185.69;5003960;28;20017;-64
2022/07/14 07:17:50;;;;;;;7.63;2.13;;;;;;;19.81;67.74;102189.22;5004261;28;20477;-63
2022/07/14 07:20:15;;;;;;;7.00;2.00;;;;;;;19.99;66.94;102188.34;5003505;28;20029;-63
2022/07/14 07:22:41;;;;;;;9.52;2.05;;;;;;;20.04;67.20;102191.66;5003678;28;20049;-63
2022/07/14 07:25:07;;;;;;;7.95;2.00;;;;;;;20.02;67.58;102196.25;5004292;28;20273;-63
2022/07/14 07:27:33;;;;;;;10.50;1.88;;;;;;;20.06;67.61;102189.78;5003778;28;20030;-63
2022/07/14 07:30:00;;;;;;;6.40;1.48;;;;;;;20.29;66.44;102203.75;5004008;28;20032;-63
2022/07/14 07:32:25;;;;;;;8.70;1.83;;;;;;;20.18;64.67;102197.19;5003756;28;20081;-64
2022/07/14 07:34:51;;;;;;;9.32;1.63;;;;;;;20.17;64.03;102199.94;5003364;28;20057;-63
2022/07/14 07:37:16;;;;;;;13.45;2.05;;;;;;;20.28;61.33;102207.38;5003485;28;20428;-64
2022/07/14 07:39:41;;;;;;;6.68;1.92;;;;;;;20.20;61.51;102197.94;5004050;28;20559;-64
2022/07/14 07:42:06;;;;;;;6.63;1.80;;;;;;;20.53;60.03;102198.03;5003792;28;20033;-64
2022/07/14 07:44:32;;;;;;;9.05;1.98;;;;;;;20.75;56.95;102199.50;5003464;28;20034;-64
2022/07/14 07:46:58;;;;;;;3.92;1.25;;;;;;;20.96;56.95;102190.28;5003839;28;20022;-62
2022/07/14 07:49:23;;;;;;;6.82;1.63;;;;;;;20.83;57.41;102197.28;5003386;28;20033;-62
2022/07/14 07:51:48;;;;;;;5.03;1.50;;;;;;;20.76;57.27;102199.41;5002953;28;20076;-63
2022/07/14 07:54:14;;;;;;;9.65;1.63;;;;;;;20.43;57.89;102205.69;5003493;28;20024;-62
2022/07/14 07:56:39;;;;;;;7.07;1.50;;;;;;;20.44;56.97;102212.78;5003242;28;20026;-63
2022/07/14 07:59:05;;;;;;;6.03;1.52;;;;;;;20.45;54.94;102210.03;5003393;28;20492;-62
2022/07/14 08:01:31;;;;;;;8.85;1.50;;;;;;;20.61;55.96;102203.81;5003186;28;20417;-62
2022/07/14 08:03:56;;;;;;;8.32;1.70;;;;;;;20.52;57.18;102201.63;5003279;28;20037;-63
2022/07/14 08:06:21;;;;;;;7.00;1.38;;;;;;;20.76;55.99;102204.78;5002788;28;20022;-63
2022/07/14 08:08:47;;;;;;;4.40;1.40;;;;;;;20.70;56.75;102205.97;5003084;28;20025;-63
2022/07/14 08:11:12;;;;;;;4.97;1.20;;;;;;;20.71;54.58;102199.66;5002862;28;20041;-64
2022/07/14 08:13:38;;;;;;;5.10;1.05;;;;;;;20.52;56.58;102199.81;5003138;28;20139;-62
2022/07/14 08:16:04;;;;;;;7.15;1.67;;;;;;;20.55;58.21;102199.66;5003381;28;20136;-64
2022/07/14 08:18:29;;;;;;;8.43;1.75;;;;;;;20.57;57.73;102191.53;5002797;28;20403;-63
2022/07/14 08:20:54;;;;;;;6.53;1.58;;;;;;;20.70;57.75;102192.59;5002774;28;20033;-64
2022/07/14 08:23:20;;;;;;;4.15;1.42;;;;;;;20.88;58.50;102186.28;5002995;28;20026;-64
2022/07/14 08:25:45;;;;;;;4.28;1.25;;;;;;;20.89;58.98;102183.50;5003236;28;20439;-64
2022/07/14 08:28:11;;;;;;;6.47;2.00;;;;;;;21.03;58.42;102173.84;5002939;28;20065;-63
2022/07/14 08:30:36;;;;;;;6.85;1.35;;;;;;;21.04;59.30;102180.97;5003357;28;20021;-63
2022/07/14 08:33:01;;;;;;;11.95;1.60;;;;;;;21.24;56.80;102181.59;5002930;28;20072;-63
2022/07/14 08:35:27;;;;;;;5.20;1.60;;;;;;;21.31;55.38;102173.13;5002677;28;20028;-63
2022/07/14 08:37:54;;;;;;;5.00;1.33;;;;;;;21.24;53.45;102177.13;5003253;28;20270;-64
2022/07/14 08:40:22;;;;;;;5.20;1.23;;;;;;;21.21;54.25;102180.84;5002866;28;20404;-64
2022/07/14 08:42:49;;;;;;;4.68;1.10;;;;;;;21.17;54.39;102181.09;5003089;28;20502;-62
2022/07/14 08:45:16;;;;;;;4.30;1.20;;;;;;;21.32;53.36;102182.03;5002913;28;20068;-62
2022/07/14 08:47:42;;;;;;;4.93;1.33;;;;;;;21.10;51.42;102177.91;5003076;28;20029;-62
2022/07/14 08:50:13;;;;;;;5.28;1.25;;;;;;;21.16;51.19;102182.06;5002030;28;20391;-62
2022/07/14 08:52:40;;;;;;;4.15;1.17;;;;;;;21.26;51.61;102177.03;5002834;28;20033;-63
2022/07/14 08:55:09;;;;;;;4.43;1.35;;;;;;;21.45;52.81;102179.47;5003084;28;20038;-63
2022/07/14 08:57:35;;;;;;;8.52;1.25;;;;;;;21.64;53.81;102181.94;5001897;28;20022;-63
2022/07/14 09:00:03;;;;;;;4.10;1.50;;;;;;;21.84;53.78;102185.25;5002789;28;20361;-62
2022/07/14 09:02:28;;;;;;;5.78;1.33;;;;;;;22.02;53.73;102182.41;5002698;28;20034;-65
2022/07/14 09:04:54;;;;;;;10.07;1.70;;;;;;;21.70;53.83;102176.19;5002272;28;20049;-63
2022/07/14 09:07:37;;;;;;;11.65;1.33;;;;;;;21.93;53.73;102176.66;5001231;28;20037;-64
2022/07/14 09:10:14;;;;;;;5.88;1.60;;;;;;;22.21;53.23;102176.75;5003669;28;20472;-64
2022/07/14 09:12:41;;;;;;;7.43;1.30;;;;;;;22.34;53.94;102174.16;5006239;28;20034;-64
2022/07/14 09:17:58;;;;;;;5.35;1.55;;;;;;;22.61;50.92;102180.59;5006114;28;20042;-63
2022/07/14 09:20:25;;;;;;;4.18;1.80;;;;;;;22.56;51.21;102183.53;5005265;28;20022;-62
2022/07/14 09:23:01;;;;;;;5.93;1.65;;;;;;;22.72;51.87;102178.06;5006114;28;20054;-63
2022/07/14 09:25:29;;;;;;;4.95;1.35;;;;;;;22.96;52.04;102178.28;5005541;28;20049;-63
2022/07/14 09:27:54;;;;;;;10.10;1.83;;;;;;;23.26;50.30;102176.34;5005928;28;20030;-62
2022/07/14 09:30:21;;;;;;;6.20;1.48;;;;;;;23.39;49.50;102171.03;5005951;28;20048;-62
2022/07/14 09:32:48;;;;;;;4.32;1.33;;;;;;;23.53;48.28;102179.97;5006279;28;20536;-66
2022/07/14 09:35:15;;;;;;;3.97;1.20;;;;;;;23.56;46.86;102177.97;5004816;28;20026;-64
2022/07/14 09:37:42;;;;;;;5.05;1.30;;;;;;;23.48;46.92;102172.25;5006102;28;20022;-63
2022/07/14 09:40:13;;;;;;;6.22;1.30;;;;;;;23.55;46.44;102173.56;5005822;28;20033;-62
2022/07/14 09:42:59;;;;;;;2.80;1.08;;;;;;;23.53;46.29;102169.22;5005515;28;20076;-62
2022/07/14 09:45:27;;;;;;;5.32;1.10;;;;;;;23.58;45.62;102167.09;5005778;28;20022;-63
2022/07/14 09:47:59;;;;;;;3.83;1.20;;;;;;;23.48;45.05;102170.41;5005945;28;20615;-63
2022/07/14 09:50:31;;;;;;;5.30;1.30;;;;;;;23.48;45.17;102175.78;5003197;28;20468;-62
2022/07/14 09:52:56;;;;;;;6.63;1.50;;;;;;;23.46;45.71;102171.47;5005548;28;20041;-62
2022/07/14 09:55:22;;;;;;;3.65;1.05;;;;;;;23.66;44.62;102170.09;5005440;28;20018;-63
2022/07/14 09:57:48;;;;;;;3.38;1.10;;;;;;;23.88;43.76;102176.69;5005944;28;20030;-62
2022/07/14 10:00:18;;;;;;;5.28;1.42;;;;;;;23.94;43.29;102165.50;5005682;28;20026;-63
2022/07/14 10:02:43;;;;;;;5.13;1.52;;;;;;;23.43;44.23;102172.56;5005285;28;20037;-62
2022/07/14 10:05:09;;;;;;;7.43;1.65;;;;;;;23.72;46.77;102171.53;5004466;28;20018;-62
2022/07/14 10:07:38;;;;;;;7.00;1.42;;;;;;;24.02;44.12;102174.88;5005311;28;20062;-62
2022/07/14 10:10:08;;;;;;;5.45;1.65;;;;;;;24.10;44.62;102177.88;5004932;28;20041;-62
2022/07/14 10:12:36;;;;;;;2.75;1.10;;;;;;;24.13;43.98;102175.00;5003857;28;20273;-62
2022/07/14 10:15:04;;;;;;;3.55;1.75;;;;;;;24.50;42.75;102170.63;5005399;28;20018;-62
2022/07/14 10:17:34;;;;;;;4.55;1.45;;;;;;;24.56;42.61;102180.97;5004606;28;20452;-64
2022/07/14 10:20:00;;;;;;;10.27;1.55;;;;;;;24.48;41.32;102182.34;5004598;28;20026;-62
2022/07/14 10:22:27;;;;;;;4.32;1.60;;;;;;;24.75;41.87;102180.47;5004526;28;20262;-64
2022/07/14 10:24:52;;;;;;;6.95;1.60;;;;;;;25.02;41.80;102171.34;5005110;28;20021;-63
2022/07/14 10:27:18;;;;;;;9.90;1.73;;;;;;;25.30;39.96;102174.63;5004655;28;20022;-63
2022/07/14 10:29:51;;;;;;;5.25;1.63;;;;;;;25.46;38.10;102174.31;5005181;28;20044;-62
2022/07/14 10:32:51;;;;;;;3.35;1.05;;;;;;;25.93;36.99;102161.78;4987198;28;20026;-63
2022/07/14 10:35:18;;;;;;;7.05;1.65;;;;;;;26.08;38.01;102159.72;5004740;28;20038;-62
2022/07/14 10:38:14;;;;;;;6.73;1.77;;;;;;;25.44;40.26;102170.03;5003456;28;20210;-63
2022/07/14 10:40:47;;;;;;;6.20;1.50;;;;;;;25.86;38.57;102169.53;5005218;28;20022;-63
2022/07/14 10:43:24;;;;;;;5.50;1.80;;;;;;;26.39;37.64;102169.94;5004661;28;20041;-62
2022/07/14 10:45:51;;;;;;;4.78;1.30;;;;;;;26.34;37.10;102167.59;5005069;28;20342;-62
2022/07/14 10:48:33;;;;;;;4.80;1.63;;;;;;;26.86;35.27;102167.00;5004110;28;20037;-63
2022/07/14 10:51:14;;;;;;;3.25;1.35;;;;;;;26.47;36.38;102175.56;5003171;28;20576;-63
2022/07/14 10:54:05;;;;;;;5.10;1.25;;;;;;;25.72;37.99;102179.56;5004250;28;20129;-63
2022/07/14 10:56:30;;;;;;;5.40;1.20;;;;;;;25.88;37.63;102175.66;5004384;28;20084;-63
2022/07/14 10:59:26;;;;;;;5.22;1.48;;;;;;;25.36;39.73;102165.22;5003137;28;20053;-62
2022/07/14 11:02:13;;;;;;;7.18;1.20;;;;;;;25.12;40.96;102176.88;5004513;28;20436;-62
2022/07/14 11:05:00;;;;;;;4.15;1.50;;;;;;;25.89;40.94;102174.69;5002371;28;20500;-62
2022/07/14 11:07:48;;;;;;;3.90;1.20;;;;;;;25.93;40.53;102172.59;5003965;28;20125;-63
2022/07/14 11:10:19;;;;;;;3.88;1.40;;;;;;;26.32;39.11;102172.25;5003431;28;20053;-65
2022/07/14 11:13:00;;;;;;;7.50;1.38;;;;;;;26.43;39.58;102161.44;5004316;28;20060;-62
2022/07/14 11:15:39;;;;;;;6.07;1.33;;;;;;;26.08;43.55;102162.41;5003983;28;20167;-62
2022/07/14 11:18:17;;;;;;;10.70;1.25;;;;;;;26.46;40.91;102163.88;5003084;28;20025;-63
2022/07/14 11:20:55;;;;;;;7.57;1.75;;;;;;;26.57;40.45;102157.59;5003246;28;20088;-63
2022/07/14 11:23:23;;;;;;;8.88;1.65;;;;;;;26.81;39.68;102169.22;5004029;28;20036;-63
2022/07/14 11:25:53;;;;;;;5.43;1.30;;;;;;;26.30;41.24;102163.41;5003899;28;20547;-62
2022/07/14 11:28:40;;;;;;;8.18;1.20;;;;;;;26.53;41.21;102166.09;5003843;28;20069;-63
2022/07/14 11:31:21;;;;;;;3.75;1.20;;;;;;;26.56;40.38;102176.66;5004401;28;20473;-62
2022/07/14 11:36:38;;;;;;;6.65;1.30;;;;;;;26.68;40.58;102158.56;5004106;28;20040;-62
2022/07/14 11:39:34;;;;;;;5.45;1.42;;;;;;;26.39;40.10;102175.34;5004053;28;20030;-63